createdAt,value
2023-02-08T00:02:58.385Z,102720
2023-02-08T00:08:50.288Z,102717
2023-02-08T00:14:42.377Z,102718
2023-02-08T00:20:42.883Z,102707
2023-02-08T00:26:41.184Z,102696
2023-02-08T00:32:33.408Z,102694
2023-02-08T00:38:31.251Z,102692
2023-02-08T00:45:31.790Z,102682
2023-02-08T00:51:23.391Z,102676
2023-02-08T00:57:15.268Z,102689
2023-02-08T01:03:05.225Z,102689
2023-02-08T01:08:55.219Z,102682
2023-02-08T01:14:45.447Z,102673
2023-02-08T01:20:35.660Z,102667
2023-02-08T01:26:26.687Z,102676
2023-02-08T01:32:17.544Z,102667
2023-02-08T01:38:17.194Z,102674
2023-02-08T01:44:07.856Z,102683
2023-02-08T01:50:01.253Z,102676
2023-02-08T01:55:52.982Z,102666
2023-02-08T02:01:44.337Z,102659
2023-02-08T02:07:34.750Z,102656
2023-02-08T02:13:25.694Z,102650
2023-02-08T02:19:18.321Z,102641
2023-02-08T02:25:12.056Z,102638
2023-02-08T02:31:01.828Z,102635
2023-02-08T02:36:52.173Z,102634
2023-02-08T02:42:46.293Z,102642
2023-02-08T02:48:36.058Z,102639
2023-02-08T02:54:26.378Z,102641
2023-02-08T03:00:17.121Z,102652
2023-02-08T03:06:07.349Z,102658
2023-02-08T03:11:58.451Z,102650
2023-02-08T03:17:49.189Z,102651
2023-02-08T03:23:39.583Z,102644
2023-02-08T03:29:29.778Z,102658
2023-02-08T03:35:20.209Z,102658
2023-02-08T03:41:12.674Z,102660
2023-02-08T03:47:03.935Z,102665
2023-02-08T03:52:55.386Z,102666
2023-02-08T03:58:46.248Z,102667
2023-02-08T04:04:37.449Z,102663
2023-02-08T04:10:28.395Z,102663
2023-02-08T04:16:19.345Z,102659
2023-02-08T04:22:11.337Z,102650
2023-02-08T04:28:01.218Z,102641
2023-02-08T04:33:51.441Z,102644
2023-02-08T04:39:42.428Z,102638
2023-02-08T04:45:32.903Z,102637
2023-02-08T04:51:25.989Z,102639
2023-02-08T04:57:15.781Z,102642
2023-02-08T05:03:06.384Z,102641
2023-02-08T05:08:56.183Z,102647
2023-02-08T05:14:48.867Z,102643
2023-02-08T05:20:41.475Z,102647
2023-02-08T05:26:31.758Z,102648
2023-02-08T05:32:22.581Z,102645
2023-02-08T05:38:12.911Z,102640
2023-02-08T05:44:03.429Z,102650
2023-02-08T05:49:53.873Z,102647
2023-02-08T05:55:44.941Z,102655
2023-02-08T06:01:36.290Z,102650
2023-02-08T06:07:26.716Z,102653
2023-02-08T06:13:16.527Z,102654
2023-02-08T06:19:09.342Z,102651
2023-02-08T06:25:00.093Z,102659
2023-02-08T06:30:52.438Z,102659
2023-02-08T06:36:43.363Z,102660
2023-02-08T06:42:33.670Z,102657
2023-02-08T06:48:24.514Z,102654
2023-02-08T06:54:15.277Z,102655
2023-02-08T07:00:08.034Z,102663
2023-02-08T07:06:08.319Z,102663
2023-02-08T07:11:57.833Z,102666
2023-02-08T07:17:48.016Z,102665
2023-02-08T07:24:43.315Z,102654
2023-02-08T07:30:32.829Z,102650
2023-02-08T07:36:24.655Z,102645
2023-02-08T07:42:14.967Z,102644
2023-02-08T07:48:05.414Z,102643
2023-02-08T07:53:56.815Z,102631
2023-02-08T07:59:48.822Z,102629
2023-02-08T08:05:42.304Z,102622
2023-02-08T08:11:34.536Z,102621
2023-02-08T08:17:26.193Z,102616
2023-02-08T08:23:21.566Z,102614
2023-02-08T08:29:14.431Z,102614
2023-02-08T08:35:04.323Z,102613
2023-02-08T08:40:54.755Z,102614
2023-02-08T08:46:45.870Z,102613
2023-02-08T08:52:36.964Z,102609
2023-02-08T08:58:27.842Z,102608
2023-02-08T09:04:20.584Z,102604
2023-02-08T09:10:11.044Z,102601
2023-02-08T09:16:01.240Z,102604
2023-02-08T09:21:52.703Z,102607
2023-02-08T09:27:42.858Z,102606
2023-02-08T09:33:33.397Z,102611
2023-02-08T09:39:24.260Z,102613
2023-02-08T09:45:14.101Z,102601
2023-02-08T09:51:04.438Z,102603
2023-02-08T09:56:54.683Z,102599
2023-02-08T10:02:45.350Z,102595
2023-02-08T10:08:39.460Z,102593
2023-02-08T10:14:45.123Z,102592
2023-02-08T10:20:52.762Z,102591
2023-02-08T10:26:43.020Z,102585
2023-02-08T10:32:33.976Z,102590
2023-02-08T10:38:25.136Z,102589
2023-02-08T10:44:33.930Z,102585
2023-02-08T10:50:23.768Z,102581
2023-02-08T10:56:19.317Z,102578
2023-02-08T11:02:08.781Z,102576
2023-02-08T11:07:58.614Z,102574
2023-02-08T11:13:49.438Z,102570
2023-02-08T11:19:41.853Z,102546
2023-02-08T11:25:33.448Z,102546
2023-02-08T11:31:25.804Z,102549
2023-02-08T11:37:16.332Z,102547
2023-02-08T11:43:06.515Z,102546
2023-02-08T11:48:56.976Z,102534
2023-02-08T11:54:47.478Z,102522
2023-02-08T12:00:38.080Z,102523
2023-02-08T12:06:31.693Z,102516
2023-02-08T12:12:21.502Z,102504
2023-02-08T12:18:12.798Z,102496
2023-02-08T12:24:05.893Z,102489
2023-02-08T12:29:57.728Z,102492
2023-02-08T12:36:08.801Z,102484
2023-02-08T12:42:03.561Z,102467
2023-02-08T12:48:07.783Z,102452
2023-02-08T12:53:57.516Z,102434
2023-02-08T12:59:48.307Z,102428
2023-02-08T13:05:38.555Z,102431
2023-02-08T13:11:39.144Z,102425
2023-02-08T13:17:28.430Z,102423
2023-02-08T13:23:18.586Z,102419
2023-02-08T13:29:06.973Z,102419
2023-02-08T13:34:59.074Z,102415
2023-02-08T13:40:49.165Z,102409
2023-02-08T13:46:39.422Z,102407
2023-02-08T13:52:49.149Z,102394
2023-02-08T13:58:37.825Z,102383
2023-02-08T14:04:29.833Z,102373
2023-02-08T14:10:20.493Z,102370
2023-02-08T14:16:14.217Z,102367
2023-02-08T14:22:04.525Z,102364
2023-02-08T14:27:54.333Z,102360
2023-02-08T14:33:45.087Z,102348
2023-02-08T14:39:35.268Z,102341
2023-02-08T14:45:27.418Z,102336
2023-02-08T14:51:17.943Z,102337
2023-02-08T14:57:07.645Z,102333
2023-02-08T15:02:57.798Z,102331
2023-02-08T15:08:51.241Z,102322
2023-02-08T15:14:43.082Z,102316
2023-02-08T15:20:32.795Z,102316
2023-02-08T15:26:24.157Z,102315
2023-02-08T15:32:14.651Z,102300
2023-02-08T15:38:06.226Z,102309
2023-02-08T15:43:56.833Z,102305
2023-02-08T15:49:46.493Z,102302
2023-02-08T15:55:37.004Z,102295
2023-02-08T16:01:28.649Z,102292
2023-02-08T16:07:18.635Z,102286
2023-02-08T16:13:08.691Z,102287
2023-02-08T16:19:00.931Z,102279
2023-02-08T16:24:50.482Z,102282
2023-02-08T16:30:40.886Z,102277
2023-02-08T16:36:32.298Z,102277
2023-02-08T16:42:22.509Z,102273
2023-02-08T16:48:22.596Z,102271
2023-02-08T16:54:15.612Z,102274
2023-02-08T17:00:05.211Z,102268
2023-02-08T17:05:57.816Z,102267
2023-02-08T17:11:47.670Z,102265
2023-02-08T17:17:43.317Z,102264
2023-02-08T17:23:34.927Z,102253
2023-02-08T17:29:25.992Z,102255
2023-02-08T17:35:15.984Z,102252
2023-02-08T17:41:06.502Z,102244
2023-02-08T17:46:58.275Z,102239
2023-02-08T17:52:48.418Z,102231
2023-02-08T17:58:40.626Z,102231
2023-02-08T18:04:33.593Z,102229
2023-02-08T18:10:26.755Z,102227
2023-02-08T18:16:16.857Z,102225
2023-02-08T18:22:08.698Z,102226
2023-02-08T18:27:59.472Z,102231
2023-02-08T18:33:52.507Z,102224
2023-02-08T18:39:57.040Z,102221
2023-02-08T18:45:49.399Z,102226
2023-02-08T18:51:38.807Z,102229
2023-02-08T18:57:27.521Z,102227
2023-02-08T19:03:16.996Z,102230
2023-02-08T19:09:06.116Z,102221
2023-02-08T19:14:54.887Z,102222
2023-02-08T19:20:44.084Z,102217
2023-02-08T19:26:33.286Z,102215
2023-02-08T19:32:22.703Z,102208
2023-02-08T19:38:11.315Z,102208
2023-02-08T19:44:02.569Z,102200
2023-02-08T19:49:53.899Z,102194
2023-02-08T19:55:45.835Z,102195
2023-02-08T20:01:36.044Z,102196
2023-02-08T20:07:27.085Z,102187
2023-02-08T20:13:17.219Z,102182
2023-02-08T20:19:07.701Z,102181
2023-02-08T20:24:56.347Z,102183
2023-02-08T20:30:45.445Z,102188
2023-02-08T20:36:34.351Z,102179
2023-02-08T20:42:22.342Z,102183
2023-02-08T20:48:10.513Z,102186
2023-02-08T20:53:58.804Z,102189
2023-02-08T20:59:47.330Z,102168
2023-02-08T21:05:36.068Z,102167
2023-02-08T21:11:27.899Z,102158
2023-02-08T21:17:16.302Z,102156
2023-02-08T21:23:04.021Z,102162
2023-02-08T21:28:56.180Z,102159
2023-02-08T21:34:44.499Z,102155
2023-02-08T21:40:33.327Z,102161
2023-02-08T21:46:22.940Z,102153
2023-02-08T21:52:12.473Z,102142
2023-02-08T21:58:04.431Z,102137
2023-02-08T22:03:53.073Z,102147
2023-02-08T22:09:43.128Z,102141
2023-02-08T22:15:34.256Z,102146
2023-02-08T22:21:27.203Z,102129
2023-02-08T22:27:17.781Z,102119
2023-02-08T22:33:08.487Z,102115
2023-02-08T22:39:00.176Z,102107
2023-02-08T22:44:52.169Z,102112
2023-02-08T22:50:41.022Z,102120
2023-02-08T22:56:31.423Z,102113
2023-02-08T23:02:20.965Z,102124
2023-02-08T23:08:13.484Z,102138
2023-02-08T23:14:02.472Z,102140
2023-02-08T23:19:52.013Z,102135
2023-02-08T23:25:43.463Z,102136
2023-02-08T23:31:32.643Z,102132
2023-02-08T23:37:22.574Z,102133
2023-02-08T23:43:12.339Z,102123
2023-02-08T23:49:02.278Z,102124
2023-02-08T23:54:54.702Z,102117
